Time;durP1;ratioP1;P1;durP2;ratioP2;P2;SDS_P1;SDS_P2;PMS_P1;PMS_P2;Temp;Humidity;BMP_temperature;BMP_pressure;BME280_temperature;BME280_humidity;BME280_pressure;Samples;Min_cycle;Max_cycle;Signal;HPM_P1;HPM_P2
2022/11/27 00:01:45;;;;;;;;;7.00;5.25;;;;;20.99;37.93;101931.19;5057768;28;45558;-41
2022/11/27 00:04:11;;;;;;;;;8.00;8.00;;;;;20.97;37.76;101928.63;5057422;28;54518;-43
2022/11/27 00:06:39;;;;;;;;;8.25;6.00;;;;;20.96;37.73;101940.09;5057623;28;45252;-45
2022/11/27 00:09:07;;;;;;;;;7.50;5.25;;;;;20.93;38.03;101927.03;5060903;28;45258;-43
2022/11/27 00:11:33;;;;;;;;;9.00;6.00;;;;;20.91;38.10;101931.50;5063639;28;46591;-42
2022/11/27 00:13:59;;;;;;;;;6.25;5.75;;;;;20.88;37.73;101929.00;5059715;28;45425;-45
2022/11/27 00:16:26;;;;;;;;;7.25;6.00;;;;;20.87;37.89;101924.66;5061596;28;45349;-43
2022/11/27 00:18:52;;;;;;;;;8.50;6.00;;;;;20.80;38.07;101902.94;5064983;28;45612;-46
2022/11/27 00:21:23;;;;;;;;;7.50;6.00;;;;;20.83;38.16;101907.22;5060171;28;46374;-45
2022/11/27 00:23:50;;;;;;;;;6.50;5.00;;;;;20.82;37.95;101916.06;5041780;28;45284;-42
2022/11/27 00:26:16;;;;;;;;;5.00;5.00;;;;;20.72;38.03;101888.31;5057500;28;45253;-43
2022/11/27 00:28:41;;;;;;;;;7.00;4.75;;;;;20.78;38.13;101906.56;5057465;28;45724;-44
2022/11/27 00:31:19;;;;;;;;;6.00;5.00;;;;;20.78;37.93;101894.25;5057773;28;46499;-41
2022/11/27 00:33:45;;;;;;;;;7.00;7.00;;;;;20.67;38.18;101881.44;5039651;28;46157;-47
2022/11/27 00:36:11;;;;;;;;;5.25;4.75;;;;;20.74;37.94;101883.84;5057967;28;45344;-44
2022/11/27 00:38:37;;;;;;;;;7.50;6.00;;;;;20.72;38.32;101890.94;5058351;28;45371;-43
2022/11/27 00:41:07;;;;;;;;;6.25;6.25;;;;;20.72;37.89;101890.94;5040187;28;47504;-44
2022/11/27 00:43:33;;;;;;;;;7.50;6.00;;;;;20.61;38.35;101871.16;5059886;28;45359;-50
2022/11/27 00:45:59;;;;;;;;;6.50;5.75;;;;;20.67;38.40;101875.34;5069493;28;45305;-41
2022/11/27 00:48:24;;;;;;;;;5.00;5.00;;;;;20.66;38.15;101870.97;5063679;28;45637;-41
2022/11/27 00:50:50;;;;;;;;;5.50;5.50;;;;;20.63;38.27;101871.97;5039629;28;45630;-41
2022/11/27 00:53:16;;;;;;;;;6.00;6.00;;;;;20.53;38.27;101853.03;5056010;28;56565;-45
2022/11/27 00:55:41;;;;;;;;;5.00;5.00;;;;;20.61;38.10;101865.91;5056870;28;45264;-44
2022/11/27 00:58:07;;;;;;;;;8.25;6.75;;;;;20.60;38.17;101863.34;5057370;28;45340;-46
2022/11/27 01:00:32;;;;;;;;;5.75;5.00;;;;;20.58;37.91;101860.75;5056780;28;47179;-46
2022/11/27 01:02:57;;;;;;;;;7.50;6.00;;;;;20.57;38.23;101873.97;5056890;28;45414;-47
2022/11/27 01:05:23;;;;;;;;;6.75;6.75;;;;;20.53;38.05;101860.91;5057003;28;45321;-47
2022/11/27 01:07:48;;;;;;;;;6.50;5.50;;;;;20.53;38.02;101858.28;5057015;28;45654;-46
2022/11/27 01:10:14;;;;;;;;;4.25;4.25;;;;;20.51;38.08;101860.13;5056617;28;46162;-43
2022/11/27 01:12:39;;;;;;;;;5.75;5.25;;;;;20.50;38.11;101850.53;5061187;28;45368;-44
2022/11/27 01:15:05;;;;;;;;;7.00;5.00;;;;;20.50;38.09;101853.16;5059372;28;45245;-48
2022/11/27 01:17:30;;;;;;;;;5.25;5.00;;;;;20.49;38.29;101851.44;5057460;28;45541;-44
2022/11/27 01:19:55;;;;;;;;;5.50;5.00;;;;;20.40;38.37;101838.59;5056693;28;47673;-41
2022/11/27 01:22:21;;;;;;;;;6.75;5.50;;;;;20.46;38.53;101846.28;5061344;28;45427;-41
2022/11/27 01:24:46;;;;;;;;;6.00;5.00;;;;;20.44;38.31;101853.38;5064498;28;45448;-42
2022/11/27 01:27:11;;;;;;;;;6.00;6.00;;;;;20.44;37.94;101856.00;5059622;28;45252;-41
2022/11/27 01:29:37;;;;;;;;;6.50;6.00;;;;;20.43;37.90;101851.66;5060136;28;45467;-43
2022/11/27 01:32:02;;;;;;;;;8.00;6.25;;;;;20.42;38.28;101847.31;5060357;28;45242;-46
2022/11/27 01:34:27;;;;;;;;;7.25;5.00;;;;;20.41;38.15;101847.38;5060276;28;45477;-42
2022/11/27 01:36:53;;;;;;;;;6.00;4.75;;;;;20.38;38.33;101833.41;5060559;28;45525;-41
2022/11/27 01:39:20;;;;;;;;;5.75;5.75;;;;;20.38;37.99;101833.41;5060402;28;46535;-43
2022/11/27 01:41:46;;;;;;;;;5.50;4.75;;;;;20.37;38.12;101834.31;5065208;28;45849;-42
2022/11/27 01:44:24;;;;;;;;;8.50;5.25;;;;;20.36;38.25;101826.50;5075291;28;45276;-43
2022/11/27 01:46:53;;;;;;;;;5.00;5.00;;;;;20.34;38.28;101821.28;5078796;28;44888;-44
2022/11/27 01:49:39;;;;;;;;;4.75;4.75;;;;;20.24;38.01;101799.72;5077437;28;45624;-43
2022/11/27 01:52:12;;;;;;;;;8.00;6.00;;;;;20.31;37.98;101821.41;5065077;28;45280;-42
2022/11/27 01:54:44;;;;;;;;;7.25;5.00;;;;;20.21;38.29;101812.16;5043988;28;45252;-42
2022/11/27 01:57:21;;;;;;;;;6.00;5.00;;;;;20.20;38.23;101810.44;5060518;28;45250;-43
2022/11/27 01:59:48;;;;;;;;;4.50;4.00;;;;;20.29;38.26;101817.97;5066449;28;46651;-44
2022/11/27 02:02:14;;;;;;;;;4.50;4.00;;;;;20.29;38.57;101815.34;5066943;28;45315;-44
2022/11/27 02:04:39;;;;;;;;;7.25;5.75;;;;;20.27;38.44;101809.28;5059764;28;45216;-42
2022/11/27 02:07:05;;;;;;;;;4.00;3.25;;;;;20.27;38.62;101806.66;5062289;28;49798;-43
2022/11/27 02:09:30;;;;;;;;;5.50;4.75;;;;;20.15;38.43;101783.44;5066890;28;45720;-41
2022/11/27 02:12:23;;;;;;;;;6.75;5.00;;;;;20.23;38.62;101797.13;5060169;28;45450;-45
2022/11/27 02:14:56;;;;;;;;;4.00;4.00;;;;;20.23;37.99;101807.66;5059299;28;45359;-41
2022/11/27 02:17:30;;;;;;;;;6.75;5.00;;;;;20.22;38.32;101806.81;5059682;28;45409;-43
2022/11/27 02:20:20;;;;;;;;;5.50;3.50;;;;;20.21;38.51;101813.00;5059010;28;46013;-43
2022/11/27 02:22:51;;;;;;;;;5.50;4.00;;;;;20.20;38.52;101808.66;5058635;28;45858;-42
2022/11/27 02:25:24;;;;;;;;;5.00;4.00;;;;;20.12;38.15;101792.31;5059268;28;45255;-44
2022/11/27 02:28:14;;;;;;;;;5.00;5.00;;;;;20.10;38.17;101790.66;5059615;28;45333;-43
2022/11/27 02:30:45;;;;;;;;;5.25;4.25;;;;;20.17;38.21;101805.28;5059390;28;46255;-43
2022/11/27 02:33:13;;;;;;;;;3.75;3.00;;;;;20.19;38.64;101800.81;5059733;28;45825;-43
2022/11/27 02:35:51;;;;;;;;;4.00;3.50;;;;;20.17;38.56;101813.19;5069961;28;45183;-40
2022/11/27 02:38:26;;;;;;;;;4.00;4.00;;;;;20.17;38.01;101802.66;5070968;28;45358;-45
2022/11/27 02:41:06;;;;;;;;;6.00;3.50;;;;;20.11;38.32;101792.38;5059750;28;47030;-44
2022/11/27 02:43:39;;;;;;;;;5.00;5.00;;;;;20.16;38.66;101798.31;5026770;28;45237;-43
2022/11/27 02:46:08;;;;;;;;;3.50;3.50;;;;;20.15;38.29;101789.56;5041643;28;45347;-41
2022/11/27 02:48:39;;;;;;;;;3.25;3.25;;;;;20.15;38.34;101793.97;5063376;28;45224;-45
2022/11/27 02:51:06;;;;;;;;;4.00;4.00;;;;;20.15;38.21;101793.97;5075233;28;45246;-50
2022/11/27 02:53:40;;;;;;;;;6.50;4.00;;;;;20.14;38.29;101785.22;5057663;28;45734;-51
2022/11/27 02:56:11;;;;;;;;;3.25;3.25;;;;;20.14;38.23;101776.44;5074869;28;45264;-43
2022/11/27 02:58:37;;;;;;;;;3.50;3.50;;;;;20.13;38.70;101770.34;5060936;28;44805;-47
2022/11/27 03:01:05;;;;;;;;;4.50;4.00;;;;;20.13;38.08;101764.19;5077122;28;45553;-45
2022/11/27 03:03:41;;;;;;;;;5.00;4.00;;;;;20.12;38.48;101757.25;5075246;28;45728;-50
2022/11/27 03:06:14;;;;;;;;;3.00;3.00;;;;;20.12;38.49;101757.25;5050513;28;45260;-43
2022/11/27 03:08:48;;;;;;;;;3.25;3.25;;;;;20.11;38.57;101760.78;5072870;28;45418;-45
2022/11/27 03:11:15;;;;;;;;;2.75;2.75;;;;;20.11;38.68;101755.53;5072162;28;45402;-54
2022/11/27 03:13:46;;;;;;;;;6.25;5.00;;;;;20.09;38.56;101742.41;5062022;28;45530;-41
2022/11/27 03:16:38;;;;;;;;;4.00;4.00;;;;;20.10;38.62;101749.38;5064842;28;45439;-51
2022/11/27 03:19:10;;;;;;;;;3.25;3.25;;;;;20.08;38.37;101752.09;5060268;28;45460;-45
2022/11/27 03:21:39;;;;;;;;;4.00;4.00;;;;;19.99;38.76;101731.41;5060224;28;46379;-48
2022/11/27 03:24:07;;;;;;;;;4.00;4.00;;;;;20.07;38.18;101749.50;5064410;28;45173;-45
2022/11/27 03:26:33;;;;;;;;;4.00;4.00;;;;;20.06;38.28;101735.50;5062102;28;45362;-47
2022/11/27 03:29:01;;;;;;;;;3.25;3.25;;;;;20.06;38.30;101732.88;5040871;28;45406;-48
2022/11/27 03:31:27;;;;;;;;;4.25;4.25;;;;;20.06;38.17;101732.88;5064994;28;45342;-49
2022/11/27 03:33:53;;;;;;;;;1.00;1.00;;;;;20.04;38.55;101729.44;5063526;28;45229;-52
2022/11/27 03:36:20;;;;;;;;;2.75;2.75;;;;;20.04;38.21;101724.16;5062708;28;45274;-50
2022/11/27 03:38:47;;;;;;;;;3.75;3.50;;;;;20.04;38.29;101718.91;5060467;28;45500;-45
2022/11/27 03:41:38;;;;;;;;;6.00;3.00;;;;;20.03;38.19;101719.81;5058499;28;46614;-47
2022/11/27 03:44:28;;;;;;;;;3.25;2.75;;;;;20.03;38.30;101722.47;5058289;28;45316;-43
2022/11/27 03:47:19;;;;;;;;;3.25;2.00;;;;;20.01;38.27;101705.88;5060185;28;45372;-47
2022/11/27 03:50:05;;;;;;;;;4.50;3.00;;;;;20.01;38.24;101705.88;5069067;28;45573;-45
2022/11/27 03:53:04;;;;;;;;;4.00;2.25;;;;;20.01;38.16;101707.66;5062146;28;47110;-45
2022/11/27 03:55:44;;;;;;;;;3.25;3.00;;;;;19.98;38.72;101691.97;5040356;28;46214;-46
2022/11/27 03:59:08;;;;;;;;;4.00;4.00;;;;;19.89;38.36;101678.28;5044236;28;45395;-47
2022/11/27 04:01:34;;;;;;;;;2.25;2.25;;;;;19.98;38.30;101691.97;4992521;28;45345;-49
2022/11/27 04:03:59;;;;;;;;;3.00;3.00;;;;;19.96;38.36;101699.94;4999656;28;46402;-45
2022/11/27 04:06:24;;;;;;;;;4.50;3.00;;;;;19.97;38.21;101696.41;5032389;28;45262;-50
2022/11/27 04:08:50;;;;;;;;;2.50;2.50;;;;;19.88;38.22;101680.97;5057734;28;45292;-51
2022/11/27 04:11:15;;;;;;;;;3.75;3.75;;;;;19.95;38.70;101692.13;5059692;28;45700;-51
2022/11/27 04:13:41;;;;;;;;;2.50;2.50;;;;;19.84;38.69;101679.34;5057886;28;46257;-44
2022/11/27 04:16:06;;;;;;;;;3.25;2.75;;;;;19.84;38.25;101674.94;5058048;28;45372;-49
2022/11/27 04:18:32;;;;;;;;;2.75;2.00;;;;;19.94;38.34;101696.50;5057645;28;45349;-46
2022/11/27 04:20:57;;;;;;;;;4.75;3.50;;;;;19.94;38.50;101701.78;5057859;28;45518;-45
2022/11/27 04:23:22;;;;;;;;;4.00;4.00;;;;;19.93;38.61;101694.78;5039465;28;46260;-48
2022/11/27 04:25:51;;;;;;;;;3.50;3.50;;;;;19.93;38.36;101694.78;5058248;28;45317;-44
2022/11/27 04:28:16;;;;;;;;;3.00;3.00;;;;;19.92;38.28;101688.69;5064297;28;45212;-44
2022/11/27 04:30:42;;;;;;;;;2.00;2.00;;;;;19.91;38.73;101683.47;5058316;28;45281;-44
2022/11/27 04:33:07;;;;;;;;;3.00;3.00;;;;;19.92;38.52;101679.91;5040312;28;46470;-43
2022/11/27 04:35:33;;;;;;;;;3.00;3.00;;;;;19.92;38.55;101666.75;5056509;28;45359;-42
2022/11/27 04:37:58;;;;;;;;;3.00;3.00;;;;;19.91;38.91;101665.03;5057152;28;45277;-42
2022/11/27 04:40:24;;;;;;;;;3.00;3.00;;;;;19.90;38.89;101664.22;5057641;28;45476;-45
2022/11/27 04:42:49;;;;;;;;;2.00;2.00;;;;;19.89;38.25;101667.75;5057509;28;47362;-47
2022/11/27 04:45:15;;;;;;;;;2.50;1.75;;;;;19.89;38.28;101666.91;5057052;28;45363;-45
2022/11/27 04:47:40;;;;;;;;;3.00;3.00;;;;;19.89;38.40;101659.00;5057351;28;45627;-45
2022/11/27 04:50:06;;;;;;;;;5.50;2.50;;;;;19.88;38.56;101654.66;5057270;28;45457;-43
2022/11/27 04:52:32;;;;;;;;;2.50;2.50;;;;;19.88;38.70;101644.16;5059494;28;46623;-44
2022/11/27 04:54:57;;;;;;;;;3.00;3.00;;;;;19.87;38.80;101637.16;5064746;28;45360;-41
2022/11/27 04:57:22;;;;;;;;;3.50;3.00;;;;;19.87;38.31;101635.38;5061732;28;45320;-44
2022/11/27 04:59:48;;;;;;;;;3.50;2.50;;;;;19.87;38.88;101632.75;5058621;28;45465;-41
2022/11/27 05:02:13;;;;;;;;;3.00;3.00;;;;;19.87;38.69;101639.81;5062233;28;46810;-41
2022/11/27 05:04:38;;;;;;;;;4.75;3.50;;;;;19.84;38.63;101627.59;5068339;28;63544;-43
2022/11/27 05:07:04;;;;;;;;;6.50;3.00;;;;;19.86;38.57;101619.66;5061592;28;45432;-44
2022/11/27 05:09:29;;;;;;;;;4.50;2.25;;;;;19.85;38.23;101628.44;5060716;28;45553;-41
2022/11/27 05:11:54;;;;;;;;;3.25;2.25;;;;;19.85;38.77;101616.13;5059981;28;58640;-43
2022/11/27 05:14:21;;;;;;;;;2.50;2.50;;;;;19.85;38.79;101612.66;5060789;28;45422;-41
2022/11/27 05:16:51;;;;;;;;;5.00;4.00;;;;;19.76;38.75;101598.97;5062090;28;45279;-42
2022/11/27 05:19:18;;;;;;;;;3.00;3.00;;;;;19.74;38.54;101603.41;5066085;28;45521;-43
2022/11/27 05:21:45;;;;;;;;;3.00;3.00;;;;;19.83;38.36;101611.84;5065826;28;46186;-46
2022/11/27 05:24:11;;;;;;;;;2.00;2.00;;;;;19.83;38.73;101610.09;5062606;28;45758;-42
2022/11/27 05:26:38;;;;;;;;;3.00;3.00;;;;;19.82;38.50;101608.38;5061442;28;45208;-41
2022/11/27 05:29:04;;;;;;;;;3.00;3.00;;;;;19.82;38.42;101607.50;5044786;28;45509;-43
2022/11/27 05:31:29;;;;;;;;;4.50;2.00;;;;;19.70;38.68;101593.94;5069938;28;45322;-45
2022/11/27 05:33:54;;;;;;;;;4.00;4.00;;;;;19.70;38.69;101599.19;5078471;28;45335;-43
2022/11/27 05:36:20;;;;;;;;;3.00;3.00;;;;;19.80;38.80;101610.22;5080706;28;44755;-42
2022/11/27 05:38:45;;;;;;;;;3.25;2.25;;;;;19.78;39.01;101612.91;5080294;28;45113;-47
2022/11/27 05:41:10;;;;;;;;;3.75;3.75;;;;;19.78;38.94;101618.19;5073953;28;53269;-42
2022/11/27 05:43:36;;;;;;;;;5.00;4.00;;;;;19.69;38.92;101591.38;5063694;28;45385;-44
2022/11/27 05:46:08;;;;;;;;;3.50;3.00;;;;;19.77;38.52;101605.94;5062306;28;45398;-42
2022/11/27 05:48:35;;;;;;;;;4.00;3.00;;;;;19.77;38.71;101595.41;5068771;28;45420;-41
2022/11/27 05:51:01;;;;;;;;;4.00;3.00;;;;;19.68;38.77;101572.09;5069393;28;45554;-43
2022/11/27 05:53:26;;;;;;;;;2.50;2.50;;;;;19.76;38.36;101592.81;5064636;28;45331;-44
2022/11/27 05:55:52;;;;;;;;;4.00;3.00;;;;;19.76;38.69;101591.06;5060046;28;49323;-43
2022/11/27 05:58:17;;;;;;;;;2.00;2.00;;;;;19.67;38.49;101572.16;5060067;28;45324;-41
2022/11/27 06:00:43;;;;;;;;;3.00;3.00;;;;;19.76;38.67;101598.09;5059695;28;46334;-42
2022/11/27 06:03:09;;;;;;;;;1.75;1.50;;;;;19.65;38.50;101585.38;5059593;28;45341;-41
2022/11/27 06:05:38;;;;;;;;;4.25;2.25;;;;;19.75;38.41;101602.50;5059567;28;45999;-43
2022/11/27 06:08:04;;;;;;;;;2.00;2.00;;;;;19.73;38.65;101599.06;5041461;28;45258;-43
2022/11/27 06:10:29;;;;;;;;;2.50;1.25;;;;;19.63;38.99;101580.16;5059847;28;45463;-41
2022/11/27 06:12:54;;;;;;;;;3.00;3.00;;;;;19.63;38.76;101572.28;5060661;28;45229;-43
2022/11/27 06:15:20;;;;;;;;;5.75;2.00;;;;;19.72;38.68;101584.22;5065300;28;45679;-42
2022/11/27 06:17:48;;;;;;;;;3.00;3.00;;;;;19.64;38.96;101573.16;5071390;28;45529;-45
2022/11/27 06:20:13;;;;;;;;;2.25;2.25;;;;;19.71;38.50;101582.50;5064240;28;45918;-45
2022/11/27 06:22:38;;;;;;;;;5.50;3.00;;;;;19.73;38.62;101585.94;5061618;28;45352;-44
2022/11/27 06:25:04;;;;;;;;;4.25;3.00;;;;;19.77;38.85;101581.41;5063825;28;44730;-44
2022/11/27 06:27:34;;;;;;;;;3.00;3.00;;;;;19.78;39.08;101586.63;5063550;28;45377;-44
2022/11/27 06:29:59;;;;;;;;;3.50;3.50;;;;;19.78;39.05;101591.00;5062856;28;46636;-44
2022/11/27 06:32:25;;;;;;;;;4.50;3.00;;;;;19.68;39.20;101568.63;5062943;28;45212;-42
2022/11/27 06:34:50;;;;;;;;;3.00;3.00;;;;;19.67;38.65;101557.25;5060788;28;45398;-44
2022/11/27 06:37:16;;;;;;;;;3.00;3.00;;;;;19.76;39.10;101558.63;5043380;28;56375;-42
2022/11/27 06:39:41;;;;;;;;;3.75;3.50;;;;;19.66;38.86;101546.78;5062835;28;45479;-41
2022/11/27 06:42:06;;;;;;;;;3.50;3.25;;;;;19.66;38.91;101546.78;5066486;28;49240;-42
2022/11/27 06:44:31;;;;;;;;;2.50;2.50;;;;;19.64;38.74;101544.22;5071547;28;44699;-44
2022/11/27 06:46:57;;;;;;;;;2.33;2.33;;;;;19.72;39.24;101560.53;5077197;28;46714;-43
2022/11/27 06:49:22;;;;;;;;;3.33;3.33;;;;;19.63;38.82;101539.88;5080617;28;57389;-42
2022/11/27 06:51:48;;;;;;;;;2.25;2.25;;;;;19.71;38.77;101544.84;5080921;28;44675;-43
2022/11/27 06:54:13;;;;;;;;;2.50;2.50;;;;;19.62;38.75;101533.75;5081516;28;44623;-42
2022/11/27 06:56:39;;;;;;;;;6.00;3.00;;;;;19.70;38.73;101549.22;5080067;28;44875;-44
2022/11/27 06:59:04;;;;;;;;;3.00;3.00;;;;;19.67;39.07;101544.09;5081760;28;46104;-44
2022/11/27 07:01:30;;;;;;;;;3.00;3.00;;;;;19.69;38.79;101544.03;5075215;28;45142;-45
2022/11/27 07:03:56;;;;;;;;;2.25;2.00;;;;;19.67;39.21;101544.09;5068985;28;45399;-45
2022/11/27 07:06:24;;;;;;;;;3.50;3.00;;;;;19.58;39.22;101526.03;5070776;28;45162;-43
2022/11/27 07:08:50;;;;;;;;;4.00;4.00;;;;;19.67;38.83;101546.72;5068804;28;46590;-51
2022/11/27 07:11:18;;;;;;;;;3.00;3.00;;;;;19.65;38.88;101538.03;5067907;28;45232;-44
2022/11/27 07:13:48;;;;;;;;;4.75;3.00;;;;;19.65;38.88;101535.41;5064583;28;45315;-50
2022/11/27 07:16:14;;;;;;;;;3.50;3.00;;;;;19.64;39.26;101528.44;5061011;28;45228;-46
2022/11/27 07:18:42;;;;;;;;;5.50;2.25;;;;;19.63;39.14;101530.19;5060347;28;45446;-43
2022/11/27 07:21:08;;;;;;;;;3.50;3.00;;;;;19.63;39.12;101526.72;5060069;28;45429;-45
2022/11/27 07:23:35;;;;;;;;;4.50;2.25;;;;;19.62;39.14;101527.63;5059458;28;45271;-46
2022/11/27 07:26:15;;;;;;;;;2.25;2.00;;;;;19.62;39.11;101525.00;5061872;28;45236;-43
2022/11/27 07:28:45;;;;;;;;;4.50;4.00;;;;;19.61;38.83;101525.94;5065885;28;45594;-42
2022/11/27 07:31:19;;;;;;;;;5.00;3.00;;;;;19.60;39.27;101530.34;5061252;28;45828;-42
2022/11/27 07:33:44;;;;;;;;;3.00;3.00;;;;;19.50;38.88;101518.50;5058671;28;45276;-42
2022/11/27 07:36:14;;;;;;;;;3.25;3.25;;;;;19.59;39.37;101533.88;5058537;28;45418;-42
2022/11/27 07:38:39;;;;;;;;;4.25;4.00;;;;;19.60;39.00;101537.38;5062756;28;45666;-44
2022/11/27 07:41:06;;;;;;;;;5.50;3.00;;;;;19.59;38.91;101543.53;5064509;28;45292;-49
2022/11/27 07:43:32;;;;;;;;;2.00;2.00;;;;;19.58;39.05;101542.69;5058754;28;45334;-44
2022/11/27 07:46:02;;;;;;;;;2.00;2.00;;;;;19.51;39.25;101525.47;5058477;28;45276;-43
2022/11/27 07:48:27;;;;;;;;;2.25;2.25;;;;;19.49;39.40;101518.53;5062992;28;47225;-46
2022/11/27 07:50:52;;;;;;;;;2.25;2.25;;;;;19.49;38.97;101516.78;5064649;28;45779;-42
2022/11/27 07:53:18;;;;;;;;;3.00;3.00;;;;;19.58;39.36;101537.44;5058106;28;45363;-45
2022/11/27 07:55:43;;;;;;;;;4.00;3.00;;;;;19.58;39.33;101533.94;5058807;28;45327;-45
2022/11/27 07:58:08;;;;;;;;;1.50;1.50;;;;;19.58;39.62;101544.44;5057930;28;46472;-41
2022/11/27 08:00:34;;;;;;;;;4.00;3.25;;;;;19.48;39.08;101528.22;5057830;28;47983;-42
2022/11/27 08:03:00;;;;;;;;;3.00;3.00;;;;;19.49;39.50;101526.41;5062968;28;45178;-47
2022/11/27 08:05:25;;;;;;;;;4.00;2.00;;;;;19.58;39.47;101536.56;5067834;28;45697;-45
2022/11/27 08:07:50;;;;;;;;;3.50;3.00;;;;;19.57;38.84;101540.09;5066717;28;45421;-50
2022/11/27 08:10:16;;;;;;;;;3.00;3.00;;;;;19.46;39.07;101532.66;5058437;28;45505;-43
2022/11/27 08:12:41;;;;;;;;;4.00;2.25;;;;;19.54;39.33;101543.72;5057609;28;45407;-45
2022/11/27 08:15:07;;;;;;;;;4.00;3.75;;;;;19.53;39.25;101528.03;5057278;28;45403;-45
2022/11/27 08:17:32;;;;;;;;;4.75;4.00;;;;;19.51;38.94;101528.09;5057548;28;45446;-47
2022/11/27 08:19:57;;;;;;;;;3.00;3.00;;;;;19.50;38.72;101521.13;5056925;28;51251;-47
2022/11/27 08:22:23;;;;;;;;;4.00;3.50;;;;;19.49;39.57;101521.16;5057452;28;45454;-57
2022/11/27 08:24:50;;;;;;;;;6.00;4.00;;;;;19.41;39.46;101510.94;5039629;28;45630;-43
2022/11/27 08:27:16;;;;;;;;;3.25;3.25;;;;;19.39;39.25;101499.66;5057300;28;47042;-44
2022/11/27 08:29:41;;;;;;;;;4.00;4.00;;;;;19.50;39.63;101517.63;5057389;28;45351;-48
2022/11/27 08:32:07;;;;;;;;;4.00;3.00;;;;;19.50;39.68;101512.34;5056166;28;45534;-43
2022/11/27 09:45:23;;;;;;;;;4.25;3.00;;;;;19.42;39.65;101405.75;5049868;28;45442;-46
2022/11/27 09:47:53;;;;;;;;;4.00;4.00;;;;;19.42;39.71;101389.97;5054922;28;45405;-43
2022/11/27 09:50:26;;;;;;;;;5.00;3.75;;;;;19.34;39.95;101370.19;5059862;28;45427;-42
2022/11/27 09:53:09;;;;;;;;;5.00;5.00;;;;;19.34;40.06;101360.53;5068336;28;45466;-44
2022/11/27 09:55:45;;;;;;;;;4.00;4.00;;;;;19.45;40.05;101368.81;5069224;28;45363;-46
2022/11/27 09:58:34;;;;;;;;;3.00;3.00;;;;;19.34;40.13;101351.78;5070395;28;45354;-42
2022/11/27 10:00:59;;;;;;;;;4.00;3.00;;;;;19.43;39.62;101365.41;5072103;28;45323;-46
2022/11/27 10:03:26;;;;;;;;;5.00;3.50;;;;;19.43;39.66;101375.91;5057473;28;45324;-42
2022/11/27 10:06:10;;;;;;;;;5.00;5.00;;;;;19.44;39.71;101382.88;5074041;28;45418;-43
2022/11/27 10:08:47;;;;;;;;;4.00;3.00;;;;;19.44;40.11;101388.16;5071075;28;45335;-42
2022/11/27 10:11:18;;;;;;;;;3.25;3.25;;;;;19.44;39.66;101382.88;5073578;28;45342;-45
2022/11/27 10:13:52;;;;;;;;;5.00;2.75;;;;;19.35;39.88;101380.63;5070735;28;45333;-45
2022/11/27 10:16:41;;;;;;;;;3.25;3.00;;;;;19.44;39.97;101396.03;5065437;28;46614;-45
2022/11/27 10:19:30;;;;;;;;;3.75;2.50;;;;;19.44;39.69;101403.03;5065937;28;45123;-42
2022/11/27 10:22:04;;;;;;;;;5.00;4.00;;;;;19.44;39.69;101389.91;5068221;28;45583;-46
2022/11/27 10:24:42;;;;;;;;;3.00;3.00;;;;;19.43;39.46;101391.69;5043914;28;45474;-42
2022/11/27 10:27:24;;;;;;;;;3.25;3.25;;;;;19.44;40.05;101390.78;5061044;28;46503;-44
2022/11/27 10:29:54;;;;;;;;;4.00;4.00;;;;;19.43;39.52;101378.56;5060845;28;45240;-46
2022/11/27 10:32:27;;;;;;;;;4.00;4.00;;;;;19.44;39.57;101379.38;5062416;28;45446;-46
2022/11/27 10:35:00;;;;;;;;;5.00;4.25;;;;;19.42;39.61;101363.69;5073113;28;45342;-48
2022/11/27 10:37:32;;;;;;;;;8.75;3.25;;;;;19.36;39.64;101355.22;5073308;28;45309;-52
2022/11/27 10:40:19;;;;;;;;;6.00;3.50;;;;;19.33;40.02;101340.44;5072741;28;45500;-46
2022/11/27 10:43:03;;;;;;;;;3.50;3.50;;;;;19.44;39.69;101355.72;5062839;28;45375;-42
2022/11/27 10:45:50;;;;;;;;;5.50;4.75;;;;;19.43;39.94;101349.63;5068284;28;45264;-44
2022/11/27 10:48:16;;;;;;;;;3.50;2.75;;;;;19.43;39.75;101361.91;5065470;28;47020;-46
2022/11/27 10:50:44;;;;;;;;;4.00;3.75;;;;;19.42;39.71;101353.19;5045166;28;45472;-42
2022/11/27 10:53:29;;;;;;;;;3.00;3.00;;;;;19.44;40.24;101347.84;5043809;28;45430;-48
2022/11/27 10:56:05;;;;;;;;;3.00;3.00;;;;;19.44;40.32;101340.81;5066324;28;45447;-49
2022/11/27 10:58:38;;;;;;;;;4.25;3.75;;;;;19.35;40.19;101330.69;5065368;28;46537;-48
2022/11/27 11:01:10;;;;;;;;;3.25;3.25;;;;;19.44;40.18;101340.81;5060297;28;45421;-46
2022/11/27 11:03:36;;;;;;;;;6.75;4.00;;;;;19.36;39.81;101324.50;5060919;28;45297;-46
2022/11/27 11:06:07;;;;;;;;;3.75;3.50;;;;;19.45;39.77;101342.53;5059995;28;45506;-49
2022/11/27 11:08:34;;;;;;;;;4.50;3.50;;;;;19.44;40.21;101339.97;5062066;28;47525;-46
2022/11/27 11:11:03;;;;;;;;;6.00;4.75;;;;;19.45;39.95;101337.28;5060777;28;45938;-46
2022/11/27 11:13:28;;;;;;;;;3.75;3.75;;;;;19.44;39.87;101330.31;5064169;28;45320;-48
2022/11/27 11:15:55;;;;;;;;;7.75;5.50;;;;;19.44;40.44;101334.69;5060889;28;45568;-45
2022/11/27 11:18:41;;;;;;;;;6.75;4.25;;;;;19.44;40.38;101324.19;5058751;28;47135;-44
2022/11/27 11:21:16;;;;;;;;;6.50;5.00;;;;;19.43;40.20;101322.47;5059001;28;45424;-43
2022/11/27 11:23:41;;;;;;;;;4.50;3.75;;;;;19.34;39.79;101299.22;5059481;28;45290;-45
2022/11/27 11:26:23;;;;;;;;;3.50;3.50;;;;;19.33;39.97;101279.97;5058829;28;45267;-43
2022/11/27 11:28:54;;;;;;;;;5.00;5.00;;;;;19.46;39.86;101296.06;5058105;28;45567;-44
2022/11/27 11:31:27;;;;;;;;;7.25;3.50;;;;;19.35;40.36;101267.59;5061443;28;45217;-45
2022/11/27 11:33:59;;;;;;;;;4.50;3.00;;;;;19.44;39.89;101288.25;5046118;28;45471;-43
2022/11/27 11:36:25;;;;;;;;;6.00;5.00;;;;;19.43;40.33;101276.03;5060421;28;45559;-42
2022/11/27 11:38:52;;;;;;;;;4.00;4.00;;;;;19.44;39.97;101271.59;5064111;28;45859;-43
2022/11/27 11:41:17;;;;;;;;;5.00;4.00;;;;;19.46;40.04;101280.28;5065647;28;45268;-42
2022/11/27 11:44:00;;;;;;;;;3.00;3.00;;;;;19.47;40.01;101272.31;5065404;28;45288;-44
2022/11/27 11:46:31;;;;;;;;;4.00;4.00;;;;;19.52;40.00;101273.91;5073758;28;45316;-43
2022/11/27 11:49:16;;;;;;;;;4.00;2.00;;;;;19.54;40.23;101262.41;5072986;28;45612;-44
2022/11/27 11:52:10;;;;;;;;;5.50;3.25;;;;;19.49;40.05;101248.63;5071144;28;45220;-45
2022/11/27 11:54:57;;;;;;;;;5.25;5.00;;;;;19.63;40.01;101256.72;5063145;28;45406;-45
2022/11/27 11:57:50;;;;;;;;;7.50;4.50;;;;;19.68;40.15;101256.50;5058675;28;45411;-45
2022/11/27 12:00:21;;;;;;;;;4.25;4.00;;;;;19.71;40.14;101251.13;5058955;28;46593;-44
2022/11/27 12:03:11;;;;;;;;;10.00;5.50;;;;;19.74;40.07;101243.09;5060974;28;45805;-42
2022/11/27 12:05:51;;;;;;;;;6.75;5.00;;;;;19.79;40.28;101235.00;5067338;28;45313;-44
2022/11/27 12:08:50;;;;;;;;;5.50;5.50;;;;;19.82;39.84;101229.59;5067167;28;45494;-46
2022/11/27 12:11:18;;;;;;;;;6.50;6.00;;;;;19.86;40.06;101233.81;5070775;28;46703;-45
2022/11/27 12:13:52;;;;;;;;;9.25;7.00;;;;;19.88;40.22;101228.50;5070472;28;45124;-46
2022/11/27 12:16:38;;;;;;;;;14.00;11.50;;;;;19.86;39.83;101204.03;5065864;28;45386;-47
2022/11/27 12:19:23;;;;;;;;;11.50;10.75;;;;;19.97;39.64;101216.66;5071695;28;45280;-45
2022/11/27 12:22:03;;;;;;;;;16.00;11.50;;;;;19.99;40.17;101202.53;5077219;28;46242;-44
2022/11/27 12:24:50;;;;;;;;;14.25;11.50;;;;;20.02;39.86;101199.75;5058782;28;45314;-42
2022/11/27 12:27:38;;;;;;;;;15.50;14.50;;;;;20.05;39.52;101193.50;5058305;28;45266;-45
2022/11/27 12:30:49;;;;;;;;;18.50;11.75;;;;;20.00;40.08;101166.56;5059061;28;45428;-44
2022/11/27 12:33:25;;;;;;;;;19.25;15.25;;;;;20.03;40.21;101164.63;4995173;28;45506;-45
2022/11/27 12:36:10;;;;;;;;;16.00;14.25;;;;;20.05;39.53;101154.88;5064418;28;45810;-48
2022/11/27 12:38:53;;;;;;;;;14.75;11.75;;;;;20.19;39.88;101174.41;5059203;28;45212;-58
2022/11/27 12:41:30;;;;;;;;;11.50;10.00;;;;;20.19;39.53;101169.16;5057640;28;45525;-56
2022/11/27 12:43:59;;;;;;;;;10.75;10.00;;;;;20.21;39.43;101162.88;5060238;28;46417;-53
2022/11/27 12:46:34;;;;;;;;;11.75;10.00;;;;;20.24;39.49;101160.09;5065691;28;45879;-57
2022/11/27 12:49:27;;;;;;;;;14.25;10.50;;;;;20.28;39.33;101173.97;5060694;28;45272;-55
2022/11/27 12:52:16;;;;;;;;;12.00;12.00;;;;;20.31;39.36;101155.41;5049943;28;45683;-52